Roanoke Regional Woodrum Field
KROA : now visible

Airfield :











YOU CAN JOIN US ON...

 
LOGIN :

Register | Disclaimer

   EN    FR    IT 

 









Legend :    VFR   Marginal VFR   IFR   Intensive IFR   Very Intensive IFR
Visi :
Ceiling :
>= 8 km
>= 3000ft
5 to 8 km
1000 to 3000 ft
1500m to 5 km
500 to 1000 ft
800 to 1500m
200 to 500 ft
< 800m
< 200 ft
Symbols :   Thunderstorms  Fog  Heavy snow  Heavy precipitations  Wind > 20 kt







- Airport Elevation : 1175 ft
- IATA code : ROA


KROA - Roanoke Regional Woodrum Field

CURRENT METAR :
  • 190854Z 00000KT 10SM CLR 23/20 A3007 RMK AO2 SLP165 T02280200 53002

EXPIRED METARs :
  • 190754Z 00000KT 10SM CLR 23/20 A3006 RMK AO2 SLP162 T02280200
  • 190654Z 00000KT 10SM CLR 23/20 A3006 RMK AO2 SLP163 T02280200

TAF KROA
Valid from the 19 at 06:00 until the 20 at 06:00 UTC


190520Z 1906/2006 31003KT P6SM SCT250
FM191900 VRB03KT P6SM VCTS BKN050CB
FM192300 VRB04KT P6SM SCT070
No reported NOTAMs for that airfield.



MET'MAP, your aeronautical weather chart ! - Copyright ORBIFLY December 2007 - Disclaimer

ORBIFLY MET'MAP TEAM :

Programming & Development : Alexandra Zaïnal
Concept & Development : Baudouin d'Aumeries
Co-Development & Prog : Marc-Olivier Méhu
Technical & hardware support : Manuel Goepfert

Contact : metmap@orbifly.com




SOURCES & CREDITS :

   NOAA       Earth
Advisory